Time;durP1;ratioP1;P1;durP2;ratioP2;P2;SDS_P1;SDS_P2;PMS_P1;PMS_P2;Temp;Humidity;BMP_temperature;BMP_pressure;BME280_temperature;BME280_humidity;BME280_pressure;Samples;Min_cycle;Max_cycle;Signal;HPM_P1;HPM_P2
2023/06/20 00:00:39;;;;;;;;;2.00;1.00;;;;;23.51;100.00;100707.38;5057520;28;70896;-76
2023/06/20 00:03:04;;;;;;;;;1.67;1.67;;;;;23.48;100.00;100703.94;5058331;28;45379;-77
2023/06/20 00:05:29;;;;;;;;;1.00;1.00;;;;;23.45;100.00;100723.84;5059243;28;45444;-78
2023/06/20 00:07:55;;;;;;;;;1.00;1.00;;;;;23.44;100.00;100721.22;5057898;28;58607;-77
2023/06/20 00:10:20;;;;;;;;;1.00;1.00;;;;;23.42;100.00;100731.16;5058807;28;47152;-78
2023/06/20 00:12:46;;;;;;;;;2.00;1.00;;;;;23.39;100.00;100731.31;5058243;28;45530;-78
2023/06/20 00:15:12;;;;;;;;;1.00;0.67;;;;;23.36;100.00;100729.63;5058690;28;45356;-77
2023/06/20 00:17:38;;;;;;;;;0.00;0.00;;;;;23.35;100.00;100719.78;5058744;28;45385;-78
2023/06/20 00:20:08;;;;;;;;;1.00;1.00;;;;;23.31;100.00;100711.91;5058195;28;47139;-78
2023/06/20 00:22:34;;;;;;;;;1.00;1.00;;;;;23.30;100.00;100708.34;5058246;28;45486;-78
2023/06/20 00:25:02;;;;;;;;;1.00;1.00;;;;;23.26;100.00;100706.72;5058422;28;45312;-78
2023/06/20 00:27:27;;;;;;;;;1.00;1.00;;;;;23.23;100.00;100704.16;5057426;28;45495;-78
2023/06/20 00:29:53;;;;;;;;;3.33;1.00;;;;;23.21;100.00;100708.72;5057433;28;69505;-77
2023/06/20 00:32:18;;;;;;;;;2.00;0.67;;;;;23.17;100.00;100705.31;5057228;28;64544;-78
2023/06/20 00:34:43;;;;;;;;;2.67;1.00;;;;;23.17;100.00;100702.63;5058283;28;45498;-78
2023/06/20 00:37:09;;;;;;;;;3.00;1.00;;;;;23.17;100.00;100704.41;5057581;28;52600;-77
2023/06/20 00:39:34;;;;;;;;;1.00;1.00;;;;;23.15;100.00;100711.69;5057279;28;64123;-76
2023/06/20 00:41:59;;;;;;;;;2.00;1.00;;;;;23.13;100.00;100714.47;5057924;28;45417;-78
2023/06/20 00:44:24;;;;;;;;;1.33;1.33;;;;;23.10;100.00;100717.28;5056115;28;63722;-78
2023/06/20 00:46:50;;;;;;;;;1.00;1.00;;;;;23.08;100.00;100712.91;5057689;28;56145;-77
2023/06/20 00:49:15;;;;;;;;;1.00;1.00;;;;;23.06;100.00;100712.94;5057106;28;69421;-78
2023/06/20 00:51:41;;;;;;;;;5.00;2.00;;;;;23.04;100.00;100708.59;5056999;28;66505;-77
2023/06/20 00:54:06;;;;;;;;;2.67;1.67;;;;;23.03;100.00;100704.16;5056594;28;64410;-78
2023/06/20 00:56:32;;;;;;;;;1.00;1.00;;;;;23.02;100.00;100695.19;5057511;28;59684;-79
2023/06/20 00:58:57;;;;;;;;;2.33;1.00;;;;;23.02;100.00;100691.63;5057641;28;46465;-78
2023/06/20 01:01:24;;;;;;;;;2.00;2.00;;;;;23.00;100.00;100692.53;5055187;28;66125;-78
2023/06/20 01:03:51;;;;;;;;;5.00;3.00;;;;;22.97;100.00;100691.81;5058057;28;45336;-77
2023/06/20 01:06:32;;;;;;;;;1.67;1.67;;;;;22.95;100.00;100693.69;5057293;28;45527;-77
2023/06/20 01:09:28;;;;;;;;;1.00;1.00;;;;;22.94;100.00;100700.00;5069383;28;46462;-77
2023/06/20 01:12:03;;;;;;;;;2.00;2.00;;;;;22.92;100.00;100697.41;5051284;28;45479;-78
2023/06/20 01:14:35;;;;;;;;;1.00;1.00;;;;;22.91;100.00;100703.72;5057691;28;45462;-78
2023/06/20 01:17:07;;;;;;;;;3.33;1.67;;;;;22.88;100.00;100698.47;5057546;28;45487;-77
2023/06/20 01:19:43;;;;;;;;;3.00;1.00;;;;;22.85;100.00;100695.88;5039411;28;46620;-78
2023/06/20 01:22:23;;;;;;;;;1.00;1.00;;;;;22.85;100.00;100698.56;5056682;28;45422;-78
2023/06/20 01:24:58;;;;;;;;;6.33;2.33;;;;;22.83;100.00;100695.03;5067549;28;55529;-77
2023/06/20 01:27:29;;;;;;;;;3.00;1.67;;;;;22.82;100.00;100696.00;5071627;28;45383;-78
2023/06/20 01:30:09;;;;;;;;;1.00;1.00;;;;;22.83;100.00;100694.19;5052794;28;46383;-77
2023/06/20 01:32:37;;;;;;;;;3.00;2.00;;;;;22.82;100.00;100685.22;5054115;28;45486;-78
2023/06/20 01:35:10;;;;;;;;;2.00;2.00;;;;;22.82;100.00;100687.03;5039292;28;45260;-77
2023/06/20 01:37:38;;;;;;;;;2.00;1.00;;;;;22.80;100.00;100680.81;5055391;28;45325;-78
2023/06/20 01:40:05;;;;;;;;;1.67;1.67;;;;;22.78;100.00;100675.50;5056937;28;47405;-78
2023/06/20 01:42:32;;;;;;;;;1.00;1.00;;;;;22.75;100.00;100681.03;5056787;28;45649;-79
2023/06/20 01:44:59;;;;;;;;;2.00;2.00;;;;;22.77;100.00;100680.97;5038883;28;46209;-78
2023/06/20 01:47:25;;;;;;;;;1.33;1.33;;;;;22.74;100.00;100684.66;5038853;28;45559;-77
2023/06/20 01:49:52;;;;;;;;;2.00;2.00;;;;;22.75;100.00;100686.44;5055958;28;61807;-78
2023/06/20 01:52:19;;;;;;;;;1.67;1.67;;;;;22.76;100.00;100685.50;5038877;28;45369;-77
2023/06/20 01:54:46;;;;;;;;;1.33;1.33;;;;;22.75;100.00;100681.03;5038633;28;45385;-77
2023/06/20 01:57:13;;;;;;;;;4.67;2.00;;;;;22.75;100.00;100686.44;5038737;28;45353;-78
2023/06/20 01:59:39;;;;;;;;;2.33;2.33;;;;;22.75;100.00;100692.69;5054812;28;46729;-76
2023/06/20 02:02:05;;;;;;;;;3.00;1.00;;;;;22.76;100.00;100693.56;5071018;28;45336;-77
2023/06/20 02:04:31;;;;;;;;;2.00;2.00;;;;;22.74;100.00;100688.25;5055632;28;62607;-78
2023/06/20 02:06:58;;;;;;;;;2.00;2.00;;;;;22.73;100.00;100688.28;5071900;28;46118;-79
2023/06/20 02:09:24;;;;;;;;;3.00;3.00;;;;;22.72;100.00;100687.41;5056359;28;47533;-78
2023/06/20 02:11:50;;;;;;;;;2.00;1.00;;;;;22.74;100.00;100690.94;5056209;28;45339;-79
2023/06/20 02:14:15;;;;;;;;;1.00;1.00;;;;;22.73;100.00;100688.28;5038412;28;56087;-78
2023/06/20 02:16:42;;;;;;;;;2.00;2.00;;;;;22.71;100.00;100688.38;5053755;28;64121;-78
2023/06/20 02:19:07;;;;;;;;;3.00;3.00;;;;;22.70;100.00;100688.44;5056306;28;46689;-77
2023/06/20 02:21:37;;;;;;;;;2.00;2.00;;;;;22.68;100.00;100696.56;5036870;28;66478;-77
2023/06/20 02:24:05;;;;;;;;;3.33;2.00;;;;;22.66;100.00;100681.41;5055511;28;45502;-77
2023/06/20 02:26:34;;;;;;;;;3.00;2.67;;;;;22.65;100.00;100671.59;5055539;28;45488;-77
2023/06/20 02:29:02;;;;;;;;;4.33;2.00;;;;;22.60;100.00;100663.72;5055957;28;46524;-77
2023/06/20 02:31:31;;;;;;;;;3.00;3.00;;;;;22.58;100.00;100662.88;5055517;28;45415;-78
2023/06/20 02:33:58;;;;;;;;;2.67;2.67;;;;;22.59;100.00;100675.44;5036008;28;45530;-75
2023/06/20 02:36:26;;;;;;;;;5.33;3.00;;;;;22.58;100.00;100673.66;5036112;28;45621;-77
2023/06/20 02:39:01;;;;;;;;;2.33;2.33;;;;;22.57;100.00;100671.03;5037465;28;47521;-77
2023/06/20 02:41:26;;;;;;;;;3.00;3.00;;;;;22.56;100.00;100666.59;5054232;28;58688;-78
2023/06/20 02:43:52;;;;;;;;;4.67;3.00;;;;;22.55;100.00;100662.16;5056143;28;46596;-78
2023/06/20 02:46:26;;;;;;;;;3.67;2.33;;;;;22.53;100.00;100670.31;5054477;28;62965;-79
2023/06/20 02:49:15;;;;;;;;;3.33;3.33;;;;;22.55;100.00;100678.31;5056029;28;46827;-77
2023/06/20 02:52:05;;;;;;;;;5.00;5.00;;;;;22.54;100.00;100660.41;5055459;28;45523;-79
2023/06/20 02:54:59;;;;;;;;;3.33;2.67;;;;;22.53;100.00;100662.22;5030122;28;45490;-79
2023/06/20 02:57:25;;;;;;;;;5.67;4.33;;;;;22.51;100.00;100661.41;5053347;28;45734;-78
2023/06/20 02:59:55;;;;;;;;;3.00;3.00;;;;;22.54;100.00;100663.97;5070788;28;46542;-76
2023/06/20 03:02:23;;;;;;;;;3.33;2.67;;;;;22.53;100.00;100669.41;5035056;28;45353;-78
2023/06/20 03:04:56;;;;;;;;;2.33;2.00;;;;;22.53;100.00;100664.00;5054856;28;63631;-77
2023/06/20 03:07:23;;;;;;;;;4.00;3.00;;;;;22.54;100.00;100663.09;5037720;28;45523;-78
2023/06/20 03:09:49;;;;;;;;;3.33;3.33;;;;;22.52;100.00;100659.56;5054357;28;47646;-77
2023/06/20 03:12:14;;;;;;;;;5.00;3.00;;;;;22.53;100.00;100654.16;5071022;28;45405;-77
2023/06/20 03:14:40;;;;;;;;;4.00;4.00;;;;;22.53;100.00;100650.56;5055717;28;45279;-78
2023/06/20 03:17:05;;;;;;;;;5.00;4.00;;;;;22.54;100.00;100660.41;5055750;28;45433;-78
2023/06/20 03:19:32;;;;;;;;;3.00;3.00;;;;;22.53;100.00;100655.94;5054897;28;62567;-78
2023/06/20 03:21:58;;;;;;;;;6.67;4.00;;;;;22.51;100.00;100650.63;5055672;28;45412;-77
2023/06/20 03:24:23;;;;;;;;;5.67;4.00;;;;;22.52;100.00;100659.56;5054977;28;61536;-77
2023/06/20 03:26:49;;;;;;;;;4.67;3.00;;;;;22.51;100.00;100650.63;5054934;28;45542;-78
2023/06/20 03:29:14;;;;;;;;;3.33;3.33;;;;;22.51;100.00;100655.13;5055040;28;45799;-77
2023/06/20 03:31:39;;;;;;;;;6.67;4.33;;;;;22.48;100.00;100648.09;5055252;28;45304;-78
2023/06/20 03:34:05;;;;;;;;;4.00;4.00;;;;;22.48;100.00;100650.78;5054428;28;67201;-79
2023/06/20 03:36:30;;;;;;;;;4.67;4.67;;;;;22.47;100.00;100644.50;5054618;28;53656;-76
2023/06/20 03:38:55;;;;;;;;;4.67;4.00;;;;;22.47;100.00;100646.31;5054169;28;68064;-78
2023/06/20 03:41:21;;;;;;;;;3.00;3.00;;;;;22.46;100.00;100634.66;5054095;28;63645;-79
2023/06/20 03:43:46;;;;;;;;;3.67;2.67;;;;;22.47;100.00;100649.00;5054075;28;63447;-78
2023/06/20 03:46:11;;;;;;;;;4.33;3.33;;;;;22.44;100.00;100639.25;5054164;28;61516;-77
2023/06/20 03:48:37;;;;;;;;;4.00;4.00;;;;;22.44;100.00;100638.38;5054516;28;67669;-78
2023/06/20 03:51:02;;;;;;;;;2.33;2.33;;;;;22.44;100.00;100639.25;5054488;28;45663;-78
2023/06/20 03:53:27;;;;;;;;;5.00;4.00;;;;;22.46;100.00;100644.56;5054834;28;57403;-78
2023/06/20 03:55:53;;;;;;;;;3.67;3.67;;;;;22.46;100.00;100637.38;5054901;28;45557;-77
2023/06/20 03:58:18;;;;;;;;;4.00;4.00;;;;;22.44;100.00;100633.88;5054285;28;69088;-77
2023/06/20 04:00:43;;;;;;;;;6.00;4.33;;;;;22.47;100.00;100635.53;5054457;28;45513;-77
2023/06/20 04:03:09;;;;;;;;;4.33;4.33;;;;;22.48;100.00;100629.25;5055079;28;45466;-78
2023/06/20 04:05:34;;;;;;;;;3.00;3.00;;;;;22.51;100.00;100630.91;5055241;28;45289;-77
2023/06/20 04:08:01;;;;;;;;;3.67;3.67;;;;;22.50;100.00;100627.34;5053333;28;68055;-76
2023/06/20 04:10:26;;;;;;;;;5.00;3.00;;;;;22.54;100.00;100639.75;5054551;28;45655;-77
2023/06/20 04:12:51;;;;;;;;;5.00;3.00;;;;;22.55;100.00;100641.50;5057196;28;59743;-78
2023/06/20 04:15:17;;;;;;;;;7.00;5.00;;;;;22.56;100.00;100626.22;5058036;28;57699;-77
2023/06/20 04:17:42;;;;;;;;;6.67;3.67;;;;;22.62;100.00;100636.72;5058152;28;47761;-78
2023/06/20 04:20:12;;;;;;;;;4.00;4.00;;;;;22.63;100.00;100627.72;5057374;28;68869;-77
2023/06/20 04:22:44;;;;;;;;;7.33;4.00;;;;;22.65;100.00;100629.41;5056945;28;45391;-77
2023/06/20 04:25:10;;;;;;;;;3.00;3.00;;;;;;;;5057895;28;45495;-78
2023/06/20 04:27:35;;;;;;;;;3.00;3.00;;;;;22.70;100.00;100640.88;5057511;28;48157;-79
2023/06/20 04:30:01;;;;;;;;;4.00;4.00;;;;;22.72;100.00;100643.47;5058009;28;50634;-79
2023/06/20 04:32:26;;;;;;;;;3.33;3.33;;;;;22.72;100.00;100635.41;5058119;28;45307;-79
2023/06/20 04:34:52;;;;;;;;;4.00;4.00;;;;;22.75;100.00;100635.28;5058104;28;45467;-79
2023/06/20 04:37:18;;;;;;;;;4.00;4.00;;;;;22.76;100.00;100642.41;5057723;28;46888;-76
2023/06/20 04:39:44;;;;;;;;;3.00;3.00;;;;;22.79;100.00;100644.09;5057888;28;45620;-77
2023/06/20 04:42:09;;;;;;;;;5.00;2.33;;;;;22.80;100.00;100640.44;5055845;28;60138;-78
2023/06/20 04:44:34;;;;;;;;;4.67;3.00;;;;;22.81;100.00;100635.03;5057001;28;59483;-77
2023/06/20 04:47:00;;;;;;;;;4.67;3.00;;;;;22.85;100.00;100627.66;5057051;28;46351;-77
2023/06/20 04:49:25;;;;;;;;;5.00;3.33;;;;;22.88;100.00;100628.44;5039763;28;53726;-77
2023/06/20 04:51:50;;;;;;;;;5.00;3.33;;;;;22.91;100.00;100631.03;5057154;28;63410;-77
2023/06/20 04:54:15;;;;;;;;;4.00;4.00;;;;;22.92;100.00;100622.00;5039467;28;55643;-78
2023/06/20 04:56:41;;;;;;;;;6.00;5.00;;;;;22.96;100.00;100622.75;5056925;28;50893;-78
2023/06/20 04:59:07;;;;;;;;;6.67;6.00;;;;;22.97;100.00;100619.13;5057752;28;45457;-77
2023/06/20 05:01:33;;;;;;;;;5.00;4.00;;;;;22.95;100.00;100616.47;5057145;28;47026;-77
2023/06/20 05:03:58;;;;;;;;;4.00;4.00;;;;;22.97;100.00;100613.72;5058426;28;45423;-78
2023/06/20 05:06:24;;;;;;;;;4.33;4.33;;;;;22.98;100.00;100610.97;5056650;28;57996;-77
2023/06/20 05:08:49;;;;;;;;;3.67;3.00;;;;;22.98;100.00;100610.09;5057539;28;45288;-79
2023/06/20 05:11:14;;;;;;;;;4.67;3.00;;;;;23.02;100.00;100624.31;5057407;28;45430;-77
2023/06/20 05:13:40;;;;;;;;;4.33;4.33;;;;;23.06;100.00;100620.50;5057083;28;62491;-79
2023/06/20 05:16:05;;;;;;;;;8.00;4.33;;;;;23.06;100.00;100618.69;5057426;28;46297;-76
2023/06/20 05:18:31;;;;;;;;;4.00;4.00;;;;;23.11;100.00;100618.50;5056515;28;45316;-78
2023/06/20 05:20:56;;;;;;;;;5.00;5.00;;;;;23.14;100.00;100624.63;5057434;28;45438;-76
2023/06/20 05:23:21;;;;;;;;;5.00;3.00;;;;;23.15;100.00;100620.97;5050819;28;58357;-75
2023/06/20 05:25:47;;;;;;;;;5.00;5.00;;;;;23.18;100.00;100617.28;5071977;27;70079;-76
2023/06/20 05:28:13;;;;;;;;;5.00;3.33;;;;;23.23;100.00;100613.44;5059690;28;68979;-76
2023/06/20 05:30:38;;;;;;;;;5.33;4.33;;;;;23.26;100.00;100612.41;5055337;28;53222;-76
2023/06/20 05:33:03;;;;;;;;;4.33;4.33;;;;;23.31;100.00;100609.53;5056627;28;45268;-76
2023/06/20 05:35:29;;;;;;;;;4.00;4.00;;;;;23.33;100.00;100605.84;5052959;28;46543;-77
2023/06/20 05:37:54;;;;;;;;;5.67;5.00;;;;;23.37;100.00;100615.50;5055431;28;45439;-75
2023/06/20 05:40:19;;;;;;;;;6.33;5.00;;;;;23.35;100.00;100603.94;5055782;28;61189;-76
2023/06/20 05:42:45;;;;;;;;;4.33;4.33;;;;;23.36;100.00;100597.59;5056015;28;59289;-76
2023/06/20 05:45:10;;;;;;;;;6.67;6.00;;;;;23.38;100.00;100593.00;5055081;28;69003;-77
2023/06/20 05:47:36;;;;;;;;;5.00;5.00;;;;;23.40;100.00;100603.72;5055374;28;45355;-78
2023/06/20 05:50:01;;;;;;;;;8.67;4.67;;;;;23.45;100.00;100599.00;5054867;28;45953;-78
2023/06/20 05:52:26;;;;;;;;;4.67;4.67;;;;;23.50;100.00;100603.22;5056727;28;45607;-79
2023/06/20 05:54:54;;;;;;;;;5.67;4.67;;;;;23.53;100.00;100600.38;5055029;28;72590;-77
2023/06/20 05:57:21;;;;;;;;;8.67;5.00;;;;;23.58;100.00;100594.78;5056426;28;45556;-79
2023/06/20 05:59:46;;;;;;;;;8.00;5.00;;;;;23.67;100.00;100598.91;5056338;28;45488;-78
2023/06/20 06:02:12;;;;;;;;;5.00;5.00;;;;;23.73;100.00;100595.91;5055546;28;45352;-78
2023/06/20 06:04:37;;;;;;;;;5.00;5.00;;;;;23.82;100.00;100608.09;5055544;28;46440;-76
2023/06/20 06:07:07;;;;;;;;;9.67;6.33;;;;;23.87;100.00;100612.31;5037718;28;45551;-79
2023/06/20 06:09:32;;;;;;;;;5.00;5.00;;;;;23.89;100.00;100617.63;5054096;28;45525;-78
2023/06/20 06:11:58;;;;;;;;;5.00;5.00;;;;;23.92;100.00;100618.38;5055585;28;45605;-76
2023/06/20 06:14:23;;;;;;;;;6.00;6.00;;;;;23.94;100.00;100605.69;5055229;28;45954;-75
2023/06/20 06:16:49;;;;;;;;;9.00;6.67;;;;;23.96;100.00;100609.16;5054495;28;45467;-76
2023/06/20 06:19:14;;;;;;;;;9.00;6.00;;;;;23.99;100.00;100616.25;5174978;22;55799;-78
2023/06/20 06:21:39;;;;;;;;;5.00;5.00;;;;;24.00;100.00;100607.22;5075485;28;58484;-76
2023/06/20 06:24:06;;;;;;;;;6.00;6.00;;;;;24.01;100.00;100609.81;5071041;28;69607;-76
2023/06/20 06:26:32;;;;;;;;;7.00;6.00;;;;;24.04;100.00;100616.91;5065075;28;45430;-76
2023/06/20 06:28:59;;;;;;;;;7.67;7.67;;;;;24.08;100.00;100621.22;5075214;28;45524;-76
2023/06/20 06:31:29;;;;;;;;;8.67;5.00;;;;;24.10;100.00;100616.59;5074923;28;47055;-76
2023/06/20 06:33:56;;;;;;;;;6.00;6.00;;;;;24.10;100.00;100626.53;5055463;28;46952;-76
2023/06/20 06:36:23;;;;;;;;;6.00;6.00;;;;;24.12;100.00;100632.72;5073699;27;45450;-76
2023/06/20 06:38:48;;;;;;;;;3.00;3.00;;;;;24.10;100.00;100632.78;5073313;27;45410;-76
2023/06/20 06:41:14;;;;;;;;;9.00;7.67;;;;;24.09;100.00;100636.44;5054939;28;45474;-76
2023/06/20 06:43:40;;;;;;;;;6.67;5.00;;;;;24.09;100.00;100639.13;5054601;27;47719;-76
2023/06/20 06:46:05;;;;;;;;;7.67;7.33;;;;;24.14;100.00;100639.78;5069758;27;46515;-79
2023/06/20 06:48:30;;;;;;;;;7.67;7.67;;;;;24.17;100.00;100638.75;5046005;28;59858;-76
2023/06/20 06:50:56;;;;;;;;;11.00;8.00;;;;;24.18;100.00;100627.91;5076222;27;50313;-75
2023/06/20 06:53:21;;;;;;;;;5.67;5.67;;;;;24.23;100.00;100636.63;5066197;27;46306;-77
2023/06/20 06:55:46;;;;;;;;;7.00;7.00;;;;;24.31;100.00;100625.47;5068994;27;61237;-78
2023/06/20 06:58:12;;;;;;;;;6.67;6.67;;;;;24.35;100.00;100624.41;5067744;28;45442;-79
2023/06/20 07:00:37;;;;;;;;;8.00;7.67;;;;;24.38;100.00;100612.56;5074935;28;45687;-76
2023/06/20 07:03:03;;;;;;;;;8.33;8.00;;;;;24.47;100.00;100620.22;5073813;28;69058;-76
2023/06/20 07:05:28;;;;;;;;;5.00;5.00;;;;;24.55;100.00;100612.59;5072956;28;68092;-75
2023/06/20 07:07:53;;;;;;;;;8.00;8.00;;;;;24.66;100.00;100614.75;5074451;28;65158;-77
2023/06/20 07:10:19;;;;;;;;;10.33;8.00;;;;;24.69;100.00;100612.78;5071543;27;63336;-76
2023/06/20 07:12:44;;;;;;;;;7.67;7.00;;;;;24.72;100.00;100614.47;5073101;28;46550;-78
2023/06/20 07:15:10;;;;;;;;;8.67;7.33;;;;;24.76;100.00;100618.75;5070393;28;67222;-78
2023/06/20 07:17:36;;;;;;;;;7.00;7.00;;;;;24.77;100.00;100625.91;5073348;28;45362;-76
2023/06/20 07:20:06;;;;;;;;;7.00;7.00;;;;;24.79;100.00;100637.50;5071331;28;45475;-76
2023/06/20 07:22:31;;;;;;;;;9.67;8.00;;;;;24.79;100.00;100632.09;5058487;28;46207;-78
2023/06/20 07:24:56;;;;;;;;;8.33;8.33;;;;;24.79;100.00;100640.19;5071130;27;69433;-79
2023/06/20 07:27:22;;;;;;;;;11.33;9.33;;;;;24.77;100.00;100642.97;5071502;28;62612;-77
2023/06/20 07:29:47;;;;;;;;;8.00;7.33;;;;;24.77;100.00;100648.38;5068230;27;62437;-78
2023/06/20 07:32:14;;;;;;;;;9.00;9.00;;;;;24.77;100.00;100652.91;5072741;28;56881;-76
2023/06/20 07:34:39;;;;;;;;;11.00;8.00;;;;;24.75;100.00;100652.09;5072780;28;45487;-78
2023/06/20 07:37:05;;;;;;;;;9.00;9.00;;;;;24.78;100.00;100660.06;5076070;28;45497;-78
2023/06/20 07:39:30;;;;;;;;;10.00;8.33;;;;;24.78;100.00;100665.47;5075541;28;45375;-79
2023/06/20 07:41:55;;;;;;;;;12.00;9.00;;;;;24.80;100.00;100663.53;5074811;28;67144;-76
2023/06/20 07:44:21;;;;;;;;;9.33;9.00;;;;;24.80;100.00;100663.53;5075082;28;55056;-78
2023/06/20 07:46:46;;;;;;;;;12.00;9.33;;;;;24.80;100.00;100664.41;5065122;28;45361;-77
2023/06/20 07:49:12;;;;;;;;;10.00;10.00;;;;;24.83;100.00;100676.91;5074473;28;45497;-79
2023/06/20 07:51:40;;;;;;;;;8.33;8.33;;;;;24.86;100.00;100670.47;5077325;28;46607;-77
2023/06/20 07:54:05;;;;;;;;;10.67;8.67;;;;;24.90;100.00;100675.63;5071852;28;45442;-76
2023/06/20 07:56:31;;;;;;;;;8.33;8.33;;;;;24.99;100.00;100685.97;5073893;28;45429;-78
2023/06/20 07:58:57;;;;;;;;;9.33;9.33;;;;;25.06;100.00;100686.56;5072990;28;45501;-78
2023/06/20 08:01:22;;;;;;;;;13.67;9.00;;;;;25.14;100.00;100676.25;5070335;28;46450;-77
2023/06/20 08:03:48;;;;;;;;;12.00;11.00;;;;;25.18;100.00;100679.63;5071616;28;45557;-78
2023/06/20 08:06:13;;;;;;;;;9.67;9.67;;;;;25.19;100.00;100686.78;5078277;28;45398;-76
2023/06/20 08:08:39;;;;;;;;;9.67;9.00;;;;;25.19;100.00;100675.97;5075607;28;57188;-77
2023/06/20 08:11:04;;;;;;;;;11.33;10.00;;;;;25.20;100.00;100680.47;5075990;28;47539;-79
2023/06/20 08:13:30;;;;;;;;;9.33;8.67;;;;;25.20;100.00;100681.31;5073851;28;54875;-78
2023/06/20 08:15:56;;;;;;;;;10.00;9.00;;;;;25.24;100.00;100672.09;5074088;28;45451;-79
2023/06/20 08:18:21;;;;;;;;;12.00;10.00;;;;;25.34;100.00;100672.47;5055330;28;46382;-80
2023/06/20 08:20:47;;;;;;;;;12.00;9.00;;;;;25.39;100.00;100673.09;5071449;27;46986;-79
2023/06/20 08:23:13;;;;;;;;;9.33;8.33;;;;;25.45;100.00;100670.06;5075460;28;45310;-76
2023/06/20 08:25:38;;;;;;;;;11.33;10.00;;;;;25.50;100.00;100673.41;5075568;28;45496;-77
2023/06/20 08:28:04;;;;;;;;;11.33;11.33;;;;;25.56;100.00;100674.91;5074627;28;45458;-79
2023/06/20 08:30:29;;;;;;;;;8.67;8.67;;;;;25.58;100.00;100660.38;5075491;28;53113;-77
2023/06/20 08:32:54;;;;;;;;;10.00;9.00;;;;;25.63;100.00;100661.94;5076112;28;45423;-78
2023/06/20 08:35:20;;;;;;;;;14.00;11.00;;;;;25.67;100.00;100650.84;5077546;28;59602;-78
2023/06/20 08:37:45;;;;;;;;;10.67;10.67;;;;;25.70;100.00;100658.81;5077901;28;60808;-78
2023/06/20 08:40:12;;;;;;;;;11.33;11.33;;;;;25.77;100.00;100656.66;5076946;28;72206;-78
2023/06/20 08:42:40;;;;;;;;;13.33;9.00;;;;;25.82;100.00;100651.88;5074589;28;45450;-77
2023/06/20 08:45:07;;;;;;;;;10.00;10.00;;;;;25.90;100.00;100643.38;5078988;28;45255;-81
2023/06/20 08:47:32;;;;;;;;;10.67;10.33;;;;;25.95;100.00;100644.84;5074725;28;45465;-77
2023/06/20 08:49:57;;;;;;;;;11.33;10.00;;;;;25.91;100.00;100627.03;5073600;28;71176;-80
2023/06/20 08:52:40;;;;;;;;;10.67;10.00;;;;;25.97;100.00;100637.50;5071805;28;46225;-79
2023/06/20 08:55:05;;;;;;;;;13.67;10.33;;;;;25.98;100.00;100641.09;5078544;28;47067;-80
2023/06/20 08:57:31;;;;;;;;;9.67;9.67;;;;;25.93;100.00;100646.75;5054864;28;45584;-77
2023/06/20 08:59:56;;;;;;;;;11.00;9.67;;;;;25.91;100.00;100654.09;5053746;28;47286;-78
2023/06/20 09:02:22;;;;;;;;;13.00;10.00;;;;;25.90;100.00;100641.53;5074256;28;62256;-78
2023/06/20 09:05:02;;;;;;;;;10.00;10.00;;;;;25.89;100.00;100647.00;5067720;28;45200;-77
2023/06/20 09:07:37;;;;;;;;;13.67;12.00;;;;;25.88;100.00;100640.72;5074236;28;45393;-79
2023/06/20 09:10:03;;;;;;;;;13.00;13.00;;;;;25.89;100.00;100637.09;5076680;28;47708;-78
2023/06/20 09:12:31;;;;;;;;;10.67;10.67;;;;;25.85;100.00;100613.84;5077319;28;45248;-78
2023/06/20 09:14:56;;;;;;;;;13.33;11.00;;;;;25.87;100.00;100620.03;5058308;28;45411;-78
2023/06/20 09:17:22;;;;;;;;;13.33;11.67;;;;;25.88;100.00;100634.44;5074899;28;52027;-79
2023/06/20 09:19:48;;;;;;;;;12.33;11.33;;;;;25.84;100.00;100625.66;5071987;28;46317;-78
2023/06/20 09:22:17;;;;;;;;;10.67;10.33;;;;;25.82;100.00;100622.13;5076790;28;66926;-77
2023/06/20 09:24:44;;;;;;;;;10.67;10.67;;;;;25.84;100.00;100612.13;5077125;28;45448;-78
2023/06/20 09:27:09;;;;;;;;;14.33;13.67;;;;;25.93;100.00;100611.59;5072031;28;45425;-78
2023/06/20 09:29:51;;;;;;;;;13.33;12.00;;;;;26.04;100.00;100619.09;5058489;28;46087;-79
2023/06/20 09:32:20;;;;;;;;;13.67;12.00;;;;;26.14;100.00;100604.06;5077171;28;45342;-79
2023/06/20 09:34:46;;;;;;;;;13.67;11.00;;;;;26.28;100.00;100595.19;5074755;28;45405;-80
2023/06/20 09:37:11;;;;;;;;;9.67;9.67;;;;;26.47;100.00;100600.41;5077686;28;45157;-78
2023/06/20 09:39:36;;;;;;;;;11.00;11.00;;;;;26.61;100.00;100601.34;5075525;28;73131;-80
2023/06/20 09:42:02;;;;;;;;;14.00;10.67;;;;;26.72;100.00;100614.25;5077180;28;45513;-80
2023/06/20 09:44:28;;;;;;;;;12.00;12.00;;;;;26.79;100.00;100628.28;5075329;28;45662;-77
2023/06/20 09:46:54;;;;;;;;;16.00;13.00;;;;;26.78;100.00;100624.72;5074146;28;45657;-78
2023/06/20 09:49:19;;;;;;;;;11.00;11.00;;;;;26.80;100.00;100619.22;5076750;28;46044;-78
2023/06/20 09:51:47;;;;;;;;;10.33;8.67;;;;;26.87;100.00;100596.19;5071127;28;67881;-78
2023/06/20 09:54:15;;;;;;;;;11.00;11.00;;;;;26.96;100.00;100600.19;5057274;28;45297;-79
2023/06/20 09:56:47;;;;;;;;;9.67;9.67;;;;;27.07;100.00;100609.44;5075757;28;45503;-80
2023/06/20 09:59:14;;;;;;;;;8.00;8.00;;;;;27.13;100.00;100614.50;5076098;28;46510;-77
2023/06/20 10:01:41;;;;;;;;;9.00;9.00;;;;;27.16;100.00;100626.97;5073918;28;45552;-78
2023/06/20 10:04:07;;;;;;;;;10.67;9.00;;;;;27.22;100.00;100628.44;5052910;28;45432;-78
2023/06/20 10:06:32;;;;;;;;;9.33;9.33;;;;;27.19;100.00;100629.50;5057855;28;45479;-79
2023/06/20 10:08:59;;;;;;;;;11.33;10.00;;;;;27.15;100.00;100628.81;5075086;28;46632;-80
2023/06/20 10:11:25;;;;;;;;;13.33;12.67;;;;;27.14;100.00;100640.63;5055804;28;45915;-79
2023/06/20 10:13:51;;;;;;;;;13.00;10.00;;;;;27.10;100.00;100624.63;5052395;28;45507;-79
2023/06/20 10:16:16;;;;;;;;;7.67;7.67;;;;;27.09;100.00;100642.75;5057627;28;63363;-78
2023/06/20 10:18:43;;;;;;;;;13.67;10.33;;;;;27.09;100.00;100640.03;5045950;28;69514;-78
2023/06/20 10:21:12;;;;;;;;;6.67;6.67;;;;;27.15;100.00;100649.63;5031027;28;45503;-79
2023/06/20 10:23:38;;;;;;;;;8.33;7.00;;;;;27.30;100.00;100655.94;5031027;28;45142;-78
2023/06/20 10:26:07;;;;;;;;;7.00;7.00;;;;;27.50;100.00;100655.59;5030188;28;45523;-79
2023/06/20 10:28:33;;;;;;;;;7.00;7.00;;;;;27.68;100.00;100661.69;5025295;28;47936;-78
2023/06/20 10:31:02;;;;;;;;;9.00;9.00;;;;;27.84;100.00;100653.50;5032000;28;45466;-79
2023/06/20 10:33:31;;;;;;;;;9.33;9.00;;;;;27.94;100.00;100658.22;5035049;28;45177;-79
2023/06/20 10:36:05;;;;;;;;;10.67;9.33;;;;;28.00;100.00;100670.53;5035137;28;45292;-77
2023/06/20 10:38:37;;;;;;;;;6.33;6.33;;;;;28.02;100.00;100670.44;5033931;28;47155;-77
2023/06/20 10:41:14;;;;;;;;;9.00;8.33;;;;;28.02;100.00;100671.34;5033834;28;45534;-77
2023/06/20 10:44:07;;;;;;;;;8.00;5.67;;;;;28.05;100.00;100672.97;5031902;28;45257;-77
2023/06/20 10:46:36;;;;;;;;;6.00;6.00;;;;;28.12;100.00;100667.03;5032256;28;45254;-77
2023/06/20 10:49:05;;;;;;;;;7.67;6.00;;;;;28.20;100.00;100674.69;5030199;28;46429;-78
2023/06/20 10:51:30;;;;;;;;;8.00;6.67;;;;;28.21;100.00;100681.84;5032720;28;45256;-76
2023/06/20 10:54:09;;;;;;;;;9.67;7.00;;;;;28.20;100.00;100677.41;5035823;28;51466;-77
2023/06/20 10:56:34;;;;;;;;;8.33;6.00;;;;;28.15;100.00;100677.69;5033576;28;45457;-78
2023/06/20 10:59:11;;;;;;;;;7.00;7.00;;;;;28.09;100.00;100672.66;5032250;28;47877;-80
2023/06/20 11:01:37;;;;;;;;;7.00;5.33;;;;;28.12;100.00;100679.72;5031038;28;45411;-78
2023/06/20 11:04:07;;;;;;;;;7.33;5.00;;;;;28.15;100.00;100676.81;5023238;28;45602;-76
2023/06/20 11:06:32;;;;;;;;;5.00;5.00;;;;;28.17;100.00;100670.31;5035652;28;45209;-79
2023/06/20 11:08:58;;;;;;;;;4.00;4.00;;;;;28.27;100.00;100670.59;5032388;28;45877;-81
2023/06/20 11:11:31;;;;;;;;;6.67;5.00;;;;;28.38;100.00;100678.94;5034218;28;45537;-79
2023/06/20 11:14:28;;;;;;;;;6.00;6.00;;;;;28.56;100.00;100678.72;5028771;28;45193;-80